Airfield :







YOU CAN JOIN US ON...

 
LOGIN :

Register | Disclaimer

   EN    FR    IT 

 









Legend :    VFR   Marginal VFR   IFR   Intensive IFR   Very Intensive IFR
Visi :
Ceiling :
>= 8 km
>= 3000ft
5 to 8 km
1000 to 3000 ft
1500m to 5 km
500 to 1000 ft
800 to 1500m
200 to 500 ft
< 800m
< 200 ft
Symbols :   Thunderstorms  Fog  Heavy snow  Heavy precipitations  Wind > 20 kt






- Airport Elevation : 23 ft
- IATA code : STT


TIST - King

CURRENT METAR :
  • 070153Z AUTO 09010KT 10SM CLR 28/22 A3007 RMK AO2 SLP182 T02830217

EXPIRED METARs :
  • 070053Z 09013KT 10SM CLR 29/21 A3005 RMK AO2 SLP175 T02890211
  • 062353Z 09011KT 10SM CLR 29/22 A3003 RMK AO2 SLP170 T02890217 10322 20289 51014

TAF TIST
Valid from the 07 at 00:00 until the 08 at 00:00 UTC


062326Z 0700/0724 09012KT P6SM FEW025 SCT035
FM071200 11016KT P6SM FEW025 SCT035
FM072300 08010KT P6SM FEW025
TJZS FIR / North America



MET'MAP, your aeronautical weather chart ! - Copyright ORBIFLY December 2007 - Disclaimer

ORBIFLY MET'MAP TEAM :

Programming & Development : Alexandra Zaïnal
Concept & original design : Baudouin d'Aumeries
Assistance for programming : Marc-Olivier Méhu
Technical & hardware support : Manuel Goepfert

Contact : metmap@orbifly.com




SOURCES & CREDITS :

   NOAA